Time;durP1;ratioP1;P1;durP2;ratioP2;P2;SDS_P1;SDS_P2;PMS_P1;PMS_P2;Temp;Humidity;BMP_temperature;BMP_pressure;BME280_temperature;BME280_humidity;BME280_pressure;Samples;Min_cycle;Max_cycle;Signal;HPM_P1;HPM_P2
2022/05/09 00:02:25;;;;;;;10.15;2.72;;;;;;;;;;5066854;28;20166;-59
2022/05/09 00:04:52;;;;;;;11.20;2.55;;;;;;;;;;5066662;28;20076;-59
2022/05/09 00:07:19;;;;;;;17.90;3.20;;;;;;;;;;5066636;28;20103;-59
2022/05/09 00:09:45;;;;;;;9.70;2.58;;;;;;;;;;5066432;28;20080;-59
2022/05/09 00:12:11;;;;;;;13.85;2.60;;;;;;;;;;5065921;28;20049;-59
2022/05/09 00:14:38;;;;;;;11.43;2.42;;;;;;;;;;5068337;28;20083;-59
2022/05/09 00:17:05;;;;;;;17.48;3.15;;;;;;;;;;5068779;28;20084;-59
2022/05/09 00:19:31;;;;;;;13.02;2.40;;;;;;;;;;5069302;28;20079;-59
2022/05/09 00:21:58;;;;;;;14.77;2.70;;;;;;;;;;5070300;28;20056;-59
2022/05/09 00:24:24;;;;;;;12.82;3.17;;;;;;;;;;5069621;28;20049;-59
2022/05/09 00:26:52;;;;;;;13.80;3.03;;;;;;;;;;5069356;28;20091;-59
2022/05/09 00:29:20;;;;;;;16.23;2.90;;;;;;;;;;5069109;28;20073;-59
2022/05/09 00:31:46;;;;;;;;;;;;;;;;;;5070008;28;20084;-59
2022/05/09 00:34:17;;;;;;;12.40;3.05;;;;;;;;;;5069106;28;43943;-59
2022/05/09 00:36:44;;;;;;;10.48;2.83;;;;;;;;;;5069530;28;20053;-59
2022/05/09 00:39:10;;;;;;;15.50;3.25;;;;;;;;;;5066950;28;20073;-59
2022/05/09 00:41:37;;;;;;;14.00;2.85;;;;;;;;;;5067743;28;20791;-59
2022/05/09 00:44:06;;;;;;;13.63;3.10;;;;;;;;;;5068809;28;20405;-59
2022/05/09 00:46:33;;;;;;;9.73;3.30;;;;;;;;;;5068735;28;20111;-58
2022/05/09 00:49:19;;;;;;;10.95;3.17;;;;;;;;;;5069210;28;20100;-59
2022/05/09 00:51:48;;;;;;;12.98;2.80;;;;;;;;;;5069001;28;20132;-58
2022/05/09 00:54:14;;;;;;;15.25;3.22;;;;;;;;;;5069111;28;20204;-59
2022/05/09 00:56:49;;;;;;;14.85;3.22;;;;;;;;;;5069510;28;20056;-59
2022/05/09 00:59:17;;;;;;;9.50;3.17;;;;;;;;;;5069036;28;20503;-59
2022/05/09 01:01:45;;;;;;;12.57;3.20;;;;;;;;;;5069470;28;20080;-59
2022/05/09 01:04:13;;;;;;;12.90;3.17;;;;;;;;;;5069577;28;20052;-59
2022/05/09 01:06:40;;;;;;;13.02;3.00;;;;;;;;;;5068166;28;20590;-59
2022/05/09 01:09:10;;;;;;;10.75;3.20;;;;;;;;;;5068677;28;20053;-59
2022/05/09 01:11:37;;;;;;;12.40;3.15;;;;;;;;;;5067654;28;20140;-59
2022/05/09 01:14:06;;;;;;;13.25;3.45;;;;;;;;;;5068859;28;20195;-59
2022/05/09 01:16:34;;;;;;;13.18;3.60;;;;;;;;;;5068580;28;20577;-59
2022/05/09 01:19:02;;;;;;;14.90;3.30;;;;;;;;;;5068932;28;20147;-59
2022/05/09 01:21:30;;;;;;;;;;;;;;;;;;5069557;28;20076;-60
2022/05/09 01:23:56;;;;;;;13.73;2.88;;;;;;;;;;5067821;28;44792;-59
2022/05/09 01:26:23;;;;;;;13.57;3.53;;;;;;;;;;5068105;28;20084;-59
2022/05/09 01:28:49;;;;;;;13.95;3.88;;;;;;;;;;5068396;28;20263;-59
2022/05/09 01:31:17;;;;;;;20.50;3.72;;;;;;;;;;5067961;28;20136;-59
2022/05/09 01:33:46;;;;;;;11.90;2.63;;;;;;;;;;5068457;28;20184;-59
2022/05/09 01:36:16;;;;;;;11.52;2.88;;;;;;;;;;5069372;28;20056;-58
2022/05/09 01:38:49;;;;;;;18.02;3.45;;;;;;;;;;5068911;28;20511;-59
2022/05/09 01:41:15;;;;;;;12.18;3.10;;;;;;;;;;5068619;28;20533;-59
2022/05/09 01:43:43;;;;;;;13.63;3.22;;;;;;;;;;5066916;28;20531;-59
2022/05/09 01:46:12;;;;;;;15.57;3.13;;;;;;;;;;5067083;28;20148;-59
2022/05/09 01:51:25;;;;;;;13.35;3.10;;;;;;;;;;5067939;28;20866;-59
2022/05/09 01:53:52;;;;;;;10.68;3.10;;;;;;;;;;5069038;28;20084;-59
2022/05/09 01:56:19;;;;;;;11.85;3.28;;;;;;;;;;5067960;28;20052;-59
2022/05/09 01:58:45;;;;;;;13.65;3.33;;;;;;;;;;5068354;28;20057;-59
2022/05/09 02:01:12;;;;;;;17.35;3.63;;;;;;;;;;5068411;28;20148;-58
2022/05/09 02:03:38;;;;;;;13.82;3.15;;;;;;;;;;5068384;28;20077;-59
2022/05/09 02:06:07;;;;;;;19.65;3.47;;;;;;;;;;5068691;28;20136;-58
2022/05/09 02:08:33;;;;;;;10.82;2.92;;;;;;;;;;5067877;28;20139;-59
2022/05/09 02:10:59;;;;;;;18.60;3.38;;;;;;;;;;5068210;28;20107;-58
2022/05/09 02:13:26;;;;;;;16.77;3.80;;;;;;;;;;5067235;28;20144;-58
2022/05/09 02:15:52;;;;;;;13.48;3.42;;;;;;;;;;5068087;28;20057;-59
2022/05/09 02:18:18;;;;;;;13.48;2.97;;;;;;;;;;5068267;28;20076;-59
2022/05/09 02:20:46;;;;;;;14.90;3.42;;;;;;;;;;5067269;28;20085;-58
2022/05/09 02:23:13;;;;;;;13.55;3.33;;;;;;;;;;5068093;28;20087;-58
2022/05/09 02:25:41;;;;;;;13.30;3.75;;;;;;;;;;5067606;28;20167;-59
2022/05/09 02:28:07;;;;;;;12.90;3.27;;;;;;;;;;5067259;28;20135;-58
2022/05/09 02:30:34;;;;;;;19.00;4.05;;;;;;;;;;5067786;28;20049;-59
2022/05/09 02:33:00;;;;;;;18.02;3.00;;;;;;;;;;5068126;28;20146;-59
2022/05/09 02:35:26;;;;;;;11.88;3.22;;;;;;;;;;5065139;28;20104;-59
2022/05/09 02:37:53;;;;;;;11.73;3.03;;;;;;;;;;5065639;28;20140;-59
2022/05/09 02:40:20;;;;;;;13.32;3.13;;;;;;;;;;5066423;28;20575;-58
2022/05/09 02:42:46;;;;;;;10.88;3.05;;;;;;;;;;5067736;28;20095;-58
2022/05/09 02:45:13;;;;;;;14.27;3.33;;;;;;;;;;5067158;28;20507;-59
2022/05/09 02:47:40;;;;;;;15.80;3.55;;;;;;;;;;5067410;28;20159;-58
2022/05/09 02:50:07;;;;;;;13.38;3.28;;;;;;;;;;5066919;28;20060;-59
2022/05/09 02:52:33;;;;;;;16.08;3.53;;;;;;;;;;5067591;28;20168;-58
2022/05/09 02:55:00;;;;;;;17.30;3.58;;;;;;;;;;5068263;28;20080;-59
2022/05/09 02:57:26;;;;;;;8.77;3.67;;;;;;;;;;5066753;28;20049;-59
2022/05/09 02:59:53;;;;;;;15.88;3.53;;;;;;;;;;5067370;28;20208;-59
2022/05/09 03:02:19;;;;;;;14.40;3.53;;;;;;;;;;5065630;28;20103;-58
2022/05/09 03:04:46;;;;;;;15.02;3.78;;;;;;;;;;5067159;28;20147;-59
2022/05/09 03:07:13;;;;;;;12.30;3.53;;;;;;;;;;5067019;28;20504;-59
2022/05/09 03:09:41;;;;;;;22.98;3.78;;;;;;;;;;5066620;28;20602;-59
2022/05/09 03:12:08;;;;;;;18.98;3.25;;;;;;;;;;5067151;28;20479;-58
2022/05/09 03:14:36;;;;;;;22.05;5.47;;;;;;;;;;5067258;28;20088;-59
2022/05/09 03:17:03;;;;;;;15.65;3.50;;;;;;;;;;5066572;28;20505;-59
2022/05/09 03:19:30;;;;;;;12.88;2.85;;;;;;;;;;5066843;28;20144;-59
2022/05/09 03:21:56;;;;;;;13.57;3.40;;;;;;;;;;5066575;28;20554;-58
2022/05/09 03:24:22;;;;;;;12.13;3.28;;;;;;;;;;5067691;28;20069;-59
2022/05/09 03:26:49;;;;;;;16.42;3.72;;;;;;;;;;5067138;28;20142;-59
2022/05/09 03:29:16;;;;;;;16.40;3.55;;;;;;;;;;5066721;28;20081;-58
2022/05/09 03:31:43;;;;;;;12.00;3.22;;;;;;;;;;5066816;28;20122;-58
2022/05/09 03:34:09;;;;;;;25.08;4.00;;;;;;;;;;5066024;28;20057;-58
2022/05/09 03:36:36;;;;;;;13.00;4.22;;;;;;;;;;5067606;28;20080;-59
2022/05/09 03:39:02;;;;;;;11.50;3.78;;;;;;;;;;5067211;28;20152;-59
2022/05/09 03:41:29;;;;;;;20.42;3.90;;;;;;;;;;5066307;28;20602;-58
2022/05/09 03:43:55;;;;;;;16.10;4.57;;;;;;;;;;5062985;28;20092;-59
2022/05/09 03:46:21;;;;;;;10.95;3.55;;;;;;;;;;5045308;28;20061;-58
2022/05/09 03:48:48;;;;;;;15.48;3.80;;;;;;;;;;5046662;28;20060;-58
2022/05/09 03:51:14;;;;;;;12.40;3.65;;;;;;;;;;5049138;28;20053;-59
2022/05/09 03:53:41;;;;;;;13.05;3.65;;;;;;;;;;5049977;28;20066;-58
2022/05/09 03:56:07;;;;;;;12.55;3.72;;;;;;;;;;5049820;28;20145;-59
2022/05/09 03:58:36;;;;;;;12.95;3.50;;;;;;;;;;5049283;28;20151;-59
2022/05/09 04:01:03;;;;;;;20.35;4.55;;;;;;;;;;5050733;28;20582;-59
2022/05/09 04:03:30;;;;;;;14.93;3.92;;;;;;;;;;5049576;28;20123;-58
2022/05/09 04:05:57;;;;;;;16.45;3.95;;;;;;;;;;5049649;28;20057;-59
2022/05/09 04:08:23;;;;;;;18.52;3.60;;;;;;;;;;5049885;28;20053;-59
2022/05/09 04:10:52;;;;;;;23.95;4.45;;;;;;;;;;5049128;28;20116;-58
2022/05/09 04:13:18;;;;;;;14.15;4.15;;;;;;;;;;5049643;28;20062;-58
2022/05/09 04:18:32;;;;;;;14.50;4.10;;;;;;;;;;5049372;28;20115;-59
2022/05/09 04:20:58;;;;;;;9.02;3.88;;;;;;;;;;5050303;28;20504;-59
2022/05/09 04:23:24;;;;;;;15.48;4.00;;;;;;;;;;5081090;28;20163;-58
2022/05/09 04:25:51;;;;;;;13.68;4.13;;;;;;;;;;5050101;28;20136;-59
2022/05/09 04:28:19;;;;;;;11.88;4.32;;;;;;;;;;5049933;28;20080;-58
2022/05/09 04:30:45;;;;;;;12.48;4.03;;;;;;;;;;5049075;28;20152;-58
2022/05/09 04:33:11;;;;;;;17.85;4.10;;;;;;;;;;5049132;28;20140;-58
2022/05/09 04:35:39;;;;;;;19.45;4.85;;;;;;;;;;5049471;28;20556;-58
2022/05/09 04:38:05;;;;;;;12.57;4.07;;;;;;;;;;5049494;28;20088;-58
2022/05/09 04:40:33;;;;;;;16.40;4.70;;;;;;;;;;5048473;28;20081;-58
2022/05/09 04:43:00;;;;;;;17.02;3.85;;;;;;;;;;5049569;28;20085;-58
2022/05/09 04:45:27;;;;;;;11.60;3.67;;;;;;;;;;5049402;28;20148;-58
2022/05/09 04:47:53;;;;;;;15.73;4.15;;;;;;;;;;5048168;28;20176;-59
2022/05/09 04:50:21;;;;;;;20.92;3.65;;;;;;;;;;5049465;28;20574;-59
2022/05/09 04:52:47;;;;;;;16.23;4.50;;;;;;;;;;5049278;28;20064;-58
2022/05/09 04:55:15;;;;;;;9.98;4.35;;;;;;;;;;5048786;28;20093;-59
2022/05/09 04:57:42;;;;;;;23.63;5.05;;;;;;;;;;5048773;28;20160;-59
2022/05/09 05:00:10;;;;;;;12.90;4.38;;;;;;;;;;5048534;28;20163;-58
2022/05/09 05:02:36;;;;;;;13.77;4.73;;;;;;;;;;5048607;28;20586;-59
2022/05/09 05:05:03;;;;;;;13.45;4.32;;;;;;;;;;5049878;28;20264;-61
2022/05/09 05:07:30;;;;;;;14.45;4.35;;;;;;;;;;5049409;28;20077;-58
2022/05/09 05:09:56;;;;;;;17.52;4.68;;;;;;;;;;5048464;28;20104;-60
2022/05/09 05:12:22;;;;;;;18.48;5.45;;;;;;;;;;5047454;28;20573;-59
2022/05/09 05:14:49;;;;;;;24.38;6.43;;;;;;;;;;5049323;28;20053;-59
2022/05/09 05:17:15;;;;;;;19.27;4.65;;;;;;;;;;5048583;28;20080;-59
2022/05/09 05:19:44;;;;;;;15.77;5.38;;;;;;;;;;5048232;28;20195;-59
2022/05/09 05:22:12;;;;;;;11.20;4.72;;;;;;;;;;5048723;28;20096;-59
2022/05/09 05:24:39;;;;;;;15.52;5.38;;;;;;;;;;5049505;28;20050;-59
2022/05/09 05:27:05;;;;;;;20.88;6.70;;;;;;;;;;5048807;28;20081;-59
2022/05/09 05:29:32;;;;;;;16.17;5.47;;;;;;;;;;5047761;28;20565;-59
2022/05/09 05:31:58;;;;;;;15.82;5.32;;;;;;;;;;5048604;28;20104;-59
2022/05/09 05:34:25;;;;;;;18.73;5.30;;;;;;;;;;5048493;28;20080;-59
2022/05/09 05:36:51;;;;;;;17.25;5.03;;;;;;;;;;5047732;28;20144;-59
2022/05/09 05:39:17;;;;;;;11.25;4.93;;;;;;;;;;5047837;28;20143;-59
2022/05/09 05:41:44;;;;;;;13.73;5.03;;;;;;;;;;5048434;28;20103;-59
2022/05/09 05:44:14;;;;;;;16.10;4.97;;;;;;;;;;5048052;28;20066;-59
2022/05/09 05:46:41;;;;;;;20.50;4.97;;;;;;;;;;5047860;28;20100;-59
2022/05/09 05:49:08;;;;;;;12.48;4.45;;;;;;;;;;5048294;28;20049;-59
2022/05/09 05:51:36;;;;;;;16.42;4.97;;;;;;;;;;5047837;28;20088;-59
2022/05/09 05:54:03;;;;;;;19.38;4.97;;;;;;;;;;5047696;28;20104;-59
2022/05/09 05:56:30;;;;;;;16.33;4.78;;;;;;;;;;5048494;28;20107;-59
2022/05/09 05:58:56;;;;;;;21.13;4.45;;;;;;;;;;5048263;28;20091;-59
2022/05/09 06:01:22;;;;;;;17.60;5.18;;;;;;;;;;5047236;28;20571;-59
2022/05/09 06:03:49;;;;;;;20.90;4.57;;;;;;;;;;5046828;28;20050;-59
2022/05/09 06:06:15;;;;;;;16.60;4.70;;;;;;;;;;5047858;28;20142;-59
2022/05/09 06:08:43;;;;;;;11.77;4.68;;;;;;;;;;5048130;28;20091;-59
2022/05/09 06:11:10;;;;;;;20.42;5.50;;;;;;;;;;5048195;28;20571;-59
2022/05/09 06:13:37;;;;;;;15.90;5.25;;;;;;;;;;5047261;28;20153;-59
2022/05/09 06:16:03;;;;;;;17.23;4.78;;;;;;;;;;5047484;28;20116;-59
2022/05/09 06:18:36;;;;;;;16.98;4.25;;;;;;;;;;5047377;28;20058;-59
2022/05/09 06:21:03;;;;;;;12.13;4.18;;;;;;;;;;5047980;28;20570;-59
2022/05/09 06:23:29;;;;;;;17.08;4.75;;;;;;;;;;5047879;28;20579;-59
2022/05/09 06:25:56;;;;;;;13.55;4.43;;;;;;;;;;5046589;28;20092;-59
2022/05/09 06:28:23;;;;;;;14.88;5.00;;;;;;;;;;5047310;28;20049;-59
2022/05/09 06:30:50;;;;;;;16.35;5.13;;;;;;;;;;5048489;28;20120;-59
2022/05/09 06:33:22;;;;;;;13.93;4.22;;;;;;;;;;5047271;28;20053;-59
2022/05/09 06:35:49;;;;;;;11.57;4.43;;;;;;;;;;5047715;28;20057;-59
2022/05/09 06:38:16;;;;;;;13.07;4.63;;;;;;;;;;5047486;28;20143;-59
2022/05/09 06:40:43;;;;;;;13.10;4.13;;;;;;;;;;5047154;28;20511;-59
2022/05/09 06:43:10;;;;;;;15.77;3.83;;;;;;;;;;5047718;28;20384;-59
2022/05/09 06:45:36;;;;;;;14.90;4.80;;;;;;;;;;5046614;28;20914;-59
2022/05/09 06:48:03;;;;;;;18.23;4.55;;;;;;;;;;5047192;28;20080;-59
2022/05/09 06:50:31;;;;;;;17.75;4.55;;;;;;;;;;5046397;28;20466;-59
2022/05/09 06:52:58;;;;;;;13.98;3.67;;;;;;;;;;5047766;28;20061;-59
2022/05/09 06:55:45;;;;;;;13.85;3.63;;;;;;;;;;5046991;28;20049;-59
2022/05/09 06:58:13;;;;;;;13.82;3.83;;;;;;;;;;5047218;28;20072;-59
2022/05/09 07:00:39;;;;;;;16.90;4.00;;;;;;;;;;5047548;28;20089;-59
2022/05/09 07:03:06;;;;;;;13.52;3.53;;;;;;;;;;5047787;28;20092;-59
2022/05/09 07:05:32;;;;;;;11.88;3.45;;;;;;;;;;5046407;28;20502;-59
2022/05/09 07:07:59;;;;;;;12.63;3.85;;;;;;;;;;5047169;28;20131;-59
2022/05/09 07:10:28;;;;;;;18.42;4.13;;;;;;;;;;5046361;28;20056;-59
2022/05/09 07:12:55;;;;;;;13.70;4.28;;;;;;;;;;5046859;28;20165;-59
2022/05/09 07:15:23;;;;;;;17.63;5.05;;;;;;;;;;5046405;28;20085;-59
2022/05/09 07:17:50;;;;;;;18.90;4.45;;;;;;;;;;5047292;28;20089;-59
2022/05/09 07:20:21;;;;;;;24.00;4.10;;;;;;;;;;5046794;28;20518;-59
2022/05/09 07:22:48;;;;;;;14.27;4.38;;;;;;;;;;5046904;28;20084;-59
2022/05/09 07:25:16;;;;;;;12.52;3.45;;;;;;;;;;5050259;28;20054;-59
2022/05/09 07:27:42;;;;;;;14.90;4.38;;;;;;;;;;5050454;28;20144;-59
2022/05/09 07:30:13;;;;;;;9.80;3.60;;;;;;;;;;5050284;28;20057;-59
2022/05/09 07:32:39;;;;;;;12.30;3.78;;;;;;;;;;5050154;28;20597;-59
2022/05/09 07:35:07;;;;;;;13.98;3.70;;;;;;;;;;5051127;28;20136;-59
2022/05/09 07:37:33;;;;;;;9.30;3.28;;;;;;;;;;5050224;28;20084;-59
2022/05/09 07:40:00;;;;;;;12.95;3.65;;;;;;;;;;5049265;28;20091;-59
2022/05/09 07:42:27;;;;;;;12.95;3.85;;;;;;;;;;5049908;28;20088;-59
2022/05/09 07:44:56;;;;;;;14.05;4.00;;;;;;;;;;5050114;28;20061;-59
2022/05/09 07:47:23;;;;;;;;;;;;;;;;;;5049839;28;20143;-59
2022/05/09 07:49:50;;;;;;;15.98;3.33;;;;;;;;;;5049439;28;45772;-59
2022/05/09 07:52:16;;;;;;;20.05;4.00;;;;;;;;;;5050025;28;20113;-59
2022/05/09 07:54:43;;;;;;;11.48;3.40;;;;;;;;;;5050044;28;20144;-59
2022/05/09 07:57:09;;;;;;;15.30;3.97;;;;;;;;;;5050752;28;20092;-59
2022/05/09 07:59:36;;;;;;;10.65;3.40;;;;;;;;;;5049391;28;20123;-59
2022/05/09 08:02:02;;;;;;;18.00;3.60;;;;;;;;;;5048447;28;20089;-59
2022/05/09 08:04:29;;;;;;;14.50;3.58;;;;;;;;;;5049499;28;20061;-59
2022/05/09 08:06:55;;;;;;;13.60;3.53;;;;;;;;;;5049840;28;20594;-59
2022/05/09 08:09:21;;;;;;;14.48;3.55;;;;;;;;;;5049645;28;20091;-59
2022/05/09 08:11:48;;;;;;;14.73;3.47;;;;;;;;;;5049298;28;20097;-59
2022/05/09 08:14:14;;;;;;;15.63;4.00;;;;;;;;;;5049879;28;20058;-59
2022/05/09 08:16:43;;;;;;;15.70;3.95;;;;;;;;;;5049747;28;20053;-59
2022/05/09 08:19:11;;;;;;;11.32;3.35;;;;;;;;;;5050536;28;20061;-59
2022/05/09 08:21:38;;;;;;;13.68;3.45;;;;;;;;;;5048646;28;20053;-59
2022/05/09 08:24:05;;;;;;;11.63;3.70;;;;;;;;;;5050077;28;20088;-60
2022/05/09 08:26:32;;;;;;;10.45;3.33;;;;;;;;;;5049189;28;20143;-60
2022/05/09 08:28:58;;;;;;;14.98;3.92;;;;;;;;;;5048256;28;20144;-59
2022/05/09 08:31:25;;;;;;;13.52;3.78;;;;;;;;;;5049341;28;20084;-59
2022/05/09 08:33:52;;;;;;;16.77;3.70;;;;;;;;;;5049744;28;20057;-59
2022/05/09 08:39:05;;;;;;;16.40;3.90;;;;;;;;;;5049290;28;20139;-59
2022/05/09 08:41:36;;;;;;;11.75;3.97;;;;;;;;;;5048846;28;20057;-59
2022/05/09 08:44:12;;;;;;;9.25;3.08;;;;;;;;;;5048529;28;20085;-59
2022/05/09 08:46:58;;;;;;;11.90;3.30;;;;;;;;;;5048529;28;20124;-60
2022/05/09 08:49:31;;;;;;;14.40;3.90;;;;;;;;;;5049031;28;20053;-59
2022/05/09 08:52:04;;;;;;;8.73;3.05;;;;;;;;;;5048853;28;20053;-59
2022/05/09 08:54:30;;;;;;;11.00;3.03;;;;;;;;;;5048662;28;20085;-59
2022/05/09 08:57:01;;;;;;;12.25;3.20;;;;;;;;;;5048611;28;20097;-59
2022/05/09 08:59:31;;;;;;;8.82;3.20;;;;;;;;;;5048814;28;20156;-60
2022/05/09 09:02:03;;;;;;;9.35;3.03;;;;;;;;;;5048598;28;20088;-59
2022/05/09 09:04:31;;;;;;;11.73;3.42;;;;;;;;;;5049190;28;20610;-59
2022/05/09 09:06:58;;;;;;;11.13;3.63;;;;;;;;;;5048840;28;20168;-59
2022/05/09 09:09:38;;;;;;;12.27;3.30;;;;;;;;;;5047461;28;20085;-59
2022/05/09 09:12:21;;;;;;;15.50;3.63;;;;;;;;;;5048948;28;20061;-59
2022/05/09 09:14:57;;;;;;;13.60;2.83;;;;;;;;;;5048314;28;20073;-59
2022/05/09 09:17:42;;;;;;;10.25;3.30;;;;;;;;;;5048432;28;20111;-59
2022/05/09 09:20:13;;;;;;;16.05;3.42;;;;;;;;;;5047528;28;20062;-59
2022/05/09 09:22:56;;;;;;;11.10;3.05;;;;;;;;;;5048474;28;20126;-59
2022/05/09 09:25:23;;;;;;;15.15;2.83;;;;;;;;;;5048292;28;20127;-59
2022/05/09 09:27:53;;;;;;;9.50;2.58;;;;;;;;;;5048355;28;20088;-59
2022/05/09 09:30:21;;;;;;;18.48;2.72;;;;;;;;;;5048303;28;20474;-59
2022/05/09 09:32:56;;;;;;;8.85;2.50;;;;;;;;;;5048331;28;20486;-59
2022/05/09 09:35:30;;;;;;;9.50;2.60;;;;;;;;;;5047793;28;20061;-59
2022/05/09 09:38:00;;;;;;;12.82;2.40;;;;;;;;;;5048456;28;20137;-59
2022/05/09 09:40:26;;;;;;;10.45;2.60;;;;;;;;;;5048125;28;20593;-59
2022/05/09 09:42:53;;;;;;;8.68;2.55;;;;;;;;;;5048101;28;21631;-60
2022/05/09 09:45:35;;;;;;;8.80;2.40;;;;;;;;;;5046908;28;20042;-59
2022/05/09 09:48:07;;;;;;;12.07;2.80;;;;;;;;;;5047991;28;20598;-59
2022/05/09 09:50:33;;;;;;;11.13;2.65;;;;;;;;;;5047747;28;20640;-59
2022/05/09 09:53:01;;;;;;;8.98;2.40;;;;;;;;;;5048366;28;20073;-60
2022/05/09 09:55:28;;;;;;;10.90;2.83;;;;;;;;;;5047792;28;20045;-59
2022/05/09 09:57:56;;;;;;;14.48;3.20;;;;;;;;;;5047938;28;20108;-59
2022/05/09 10:00:30;;;;;;;8.90;2.47;;;;;;;;;;5047593;28;20143;-59
2022/05/09 10:03:18;;;;;;;11.80;2.83;;;;;;;;;;5047332;28;20132;-59
2022/05/09 10:05:45;;;;;;;8.65;2.42;;;;;;;;;;5047934;28;20049;-59
2022/05/09 10:08:23;;;;;;;10.55;2.50;;;;;;;;;;5047747;28;20108;-59
2022/05/09 10:10:54;;;;;;;9.13;2.80;;;;;;;;;;5047540;28;20143;-60
2022/05/09 10:13:21;;;;;;;10.93;2.67;;;;;;;;;;5047400;28;20092;-60
2022/05/09 10:16:00;;;;;;;10.60;2.60;;;;;;;;;;5047990;28;20057;-60
2022/05/09 10:18:30;;;;;;;11.98;3.30;;;;;;;;;;5047481;28;20084;-60
2022/05/09 10:21:19;;;;;;;15.38;2.53;;;;;;;;;;5047056;28;20057;-60
2022/05/09 10:26:36;;;;;;;12.75;2.60;;;;;;;;;;5047769;28;20077;-60
2022/05/09 10:29:13;;;;;;;9.82;3.00;;;;;;;;;;5047031;28;20050;-60
2022/05/09 10:31:47;;;;;;;11.23;2.50;;;;;;;;;;5058288;28;20134;-60
2022/05/09 10:34:16;;;;;;;14.30;2.55;;;;;;;;;;5066897;28;20061;-60
2022/05/09 10:37:00;;;;;;;12.15;2.72;;;;;;;;;;5065442;28;20071;-60
2022/05/09 10:39:29;;;;;;;9.68;2.35;;;;;;;;;;5066783;28;20135;-60
2022/05/09 10:41:59;;;;;;;8.40;2.65;;;;;;;;;;5067357;28;20084;-60
2022/05/09 10:44:40;;;;;;;13.82;2.85;;;;;;;;;;5067452;28;20076;-60
2022/05/09 10:47:27;;;;;;;8.35;2.78;;;;;;;;;;5067663;28;20095;-60
2022/05/09 10:50:12;;;;;;;13.25;3.40;;;;;;;;;;5066803;28;20092;-60
2022/05/09 10:53:02;;;;;;;19.23;3.53;;;;;;;;;;5067052;28;20164;-60
2022/05/09 10:55:43;;;;;;;9.93;2.78;;;;;;;;;;5067028;28;20057;-60
2022/05/09 10:58:14;;;;;;;9.00;2.67;;;;;;;;;;5066418;28;20081;-60
2022/05/09 11:00:49;;;;;;;8.55;2.50;;;;;;;;;;5066457;28;20523;-60
2022/05/09 11:03:24;;;;;;;8.70;3.03;;;;;;;;;;5066180;28;20088;-60
2022/05/09 11:05:58;;;;;;;12.82;2.83;;;;;;;;;;5066451;28;20044;-60
2022/05/09 11:08:39;;;;;;;10.38;2.80;;;;;;;;;;5066419;28;20610;-60
2022/05/09 11:11:22;;;;;;;9.88;2.72;;;;;;;;;;5067289;28;20499;-60
2022/05/09 11:14:12;;;;;;;11.57;2.50;;;;;;;;;;5066278;28;20248;-60
2022/05/09 11:16:56;;;;;;;8.70;2.63;;;;;;;;;;5066796;28;20582;-60
2022/05/09 11:19:30;;;;;;;11.30;2.60;;;;;;;;;;5066530;28;20092;-60
2022/05/09 11:22:06;;;;;;;7.38;2.35;;;;;;;;;;5066889;28;20142;-60
2022/05/09 11:24:41;;;;;;;7.20;2.42;;;;;;;;;;5066768;28;20144;-60
2022/05/09 11:27:26;;;;;;;15.07;2.88;;;;;;;;;;5067308;28;20085;-60
2022/05/09 11:30:09;;;;;;;9.15;2.55;;;;;;;;;;5065836;28;20085;-60
2022/05/09 11:32:37;;;;;;;9.75;2.40;;;;;;;;;;5066480;28;20621;-59
2022/05/09 11:35:21;;;;;;;10.30;2.63;;;;;;;;;;5066781;28;20076;-60
2022/05/09 11:37:55;;;;;;;15.20;3.40;;;;;;;;;;5067056;28;20088;-60
2022/05/09 11:40:30;;;;;;;8.55;2.45;;;;;;;;;;5066529;28;20053;-60
2022/05/09 11:43:28;;;;;;;8.32;2.17;;;;;;;;;;5066794;28;20088;-59
2022/05/09 11:45:57;;;;;;;;;;;;;;;;;;5067474;28;20127;-60
2022/05/09 11:48:26;;;;;;;10.35;3.00;;;;;;;;;;5065365;28;44347;-59
2022/05/09 11:51:01;;;;;;;11.48;3.13;;;;;;;;;;5066601;28;20060;-60
2022/05/09 11:53:30;;;;;;;7.13;2.20;;;;;;;;;;5066601;28;20081;-60
2022/05/09 11:55:57;;;;;;;9.10;2.65;;;;;;;;;;5066318;28;20057;-60
2022/05/09 11:58:24;;;;;;;6.63;2.17;;;;;;;;;;5065596;28;20589;-60
2022/05/09 12:00:52;;;;;;;10.23;2.75;;;;;;;;;;5066446;28;20084;-60
2022/05/09 12:03:37;;;;;;;10.70;2.40;;;;;;;;;;5066321;28;20103;-59
2022/05/09 12:06:05;;;;;;;7.32;1.58;;;;;;;;;;5067302;28;20119;-60
2022/05/09 12:08:41;;;;;;;4.97;1.35;;;;;;;;;;5066562;28;20053;-60
2022/05/09 12:11:17;;;;;;;5.28;1.52;;;;;;;;;;5069491;28;20145;-60
2022/05/09 12:13:44;;;;;;;6.18;1.15;;;;;;;;;;5069730;28;20053;-60
2022/05/09 12:16:30;;;;;;;6.78;1.48;;;;;;;;;;5069797;28;20088;-60
2022/05/09 12:19:00;;;;;;;7.15;2.00;;;;;;;;;;5069888;28;20057;-60
2022/05/09 12:21:31;;;;;;;6.22;1.88;;;;;;;;;;5069115;28;20056;-60
2022/05/09 12:24:27;;;;;;;8.63;2.15;;;;;;;;;;5069329;28;20057;-60
2022/05/09 12:27:20;;;;;;;5.97;1.40;;;;;;;;;;5055397;28;20053;-60
2022/05/09 12:29:47;;;;;;;6.30;1.60;;;;;;;;;;5069931;28;20088;-60
2022/05/09 12:32:14;;;;;;;8.40;2.17;;;;;;;;;;5070082;28;20200;-60
2022/05/09 12:34:42;;;;;;;9.63;1.98;;;;;;;;;;5070012;28;20072;-60
2022/05/09 12:37:08;;;;;;;;;;;;;;;;;;5069857;28;20589;-60
2022/05/09 12:39:39;;;;;;;5.45;1.63;;;;;;;;;;5067801;28;45816;-60
2022/05/09 12:42:12;;;;;;;4.50;1.60;;;;;;;;;;5069533;28;20099;-60
2022/05/09 12:44:46;;;;;;;4.20;1.60;;;;;;;;;;5069285;28;20053;-60
2022/05/09 12:47:15;;;;;;;6.85;2.00;;;;;;;;;;5068951;28;20173;-60
2022/05/09 12:49:43;;;;;;;11.75;1.80;;;;;;;;;;5070081;28;20107;-60
2022/05/09 12:52:11;;;;;;;11.63;2.17;;;;;;;;;;5069714;28;20606;-60
2022/05/09 12:54:39;;;;;;;6.30;1.85;;;;;;;;;;5068661;28;20848;-60
2022/05/09 12:57:06;;;;;;;9.88;1.80;;;;;;;;;;5069659;28;20493;-60
2022/05/09 12:59:47;;;;;;;8.73;1.80;;;;;;;;;;5069632;28;20076;-60
2022/05/09 13:02:20;;;;;;;6.97;2.08;;;;;;;;;;5068988;28;20210;-60
2022/05/09 13:05:07;;;;;;;6.63;1.90;;;;;;;;;;5069472;28;20049;-60
2022/05/09 13:07:33;;;;;;;6.93;2.33;;;;;;;;;;5068665;28;20135;-60
2022/05/09 13:10:00;;;;;;;6.38;2.00;;;;;;;;;;5068965;28;20088;-60
2022/05/09 13:12:32;;;;;;;6.80;1.80;;;;;;;;;;5068444;28;20107;-60
2022/05/09 13:15:00;;;;;;;7.20;1.95;;;;;;;;;;5069388;28;20084;-60
2022/05/09 13:17:38;;;;;;;6.53;2.08;;;;;;;;;;5068417;28;20099;-60
2022/05/09 13:20:16;;;;;;;9.27;2.55;;;;;;;;;;5068909;28;20053;-60
2022/05/09 13:22:42;;;;;;;;;;;;;;;;;;5068628;28;20092;-60
2022/05/09 13:25:10;;;;;;;8.50;2.38;;;;;;;;;;5067597;28;44894;-60
2022/05/09 13:27:47;;;;;;;6.85;2.30;;;;;;;;;;5068801;28;20112;-60
2022/05/09 13:30:14;;;;;;;9.70;2.65;;;;;;;;;;5068803;28;20107;-60
2022/05/09 13:32:40;;;;;;;7.32;2.50;;;;;;;;;;5068109;28;20156;-60
2022/05/09 13:35:14;;;;;;;8.40;2.63;;;;;;;;;;5068707;28;20262;-60
2022/05/09 13:37:41;;;;;;;6.22;2.13;;;;;;;;;;5068477;28;20057;-60
2022/05/09 13:40:09;;;;;;;6.17;2.40;;;;;;;;;;5068719;28;20057;-60
2022/05/09 13:42:39;;;;;;;6.68;2.35;;;;;;;;;;5068471;28;20529;-60
2022/05/09 13:45:26;;;;;;;9.18;2.83;;;;;;;;;;5068641;28;20164;-60
2022/05/09 13:47:57;;;;;;;7.82;2.60;;;;;;;;;;5069229;28;20115;-60
2022/05/09 13:50:31;;;;;;;15.23;2.80;;;;;;;;;;5068575;28;20053;-60
2022/05/09 13:53:01;;;;;;;5.43;2.63;;;;;;;;;;5068539;28;20115;-60
2022/05/09 13:55:30;;;;;;;9.38;2.67;;;;;;;;;;5068479;28;20049;-60
2022/05/09 13:57:58;;;;;;;6.25;2.55;;;;;;;;;;5069320;28;20111;-60
2022/05/09 14:00:28;;;;;;;10.32;2.35;;;;;;;;;;5068297;28;20064;-60
2022/05/09 14:03:05;;;;;;;7.70;2.50;;;;;;;;;;5067783;28;20096;-60
2022/05/09 14:05:33;;;;;;;8.82;2.67;;;;;;;;;;5068154;28;20567;-60
2022/05/09 14:08:04;;;;;;;8.30;2.60;;;;;;;;;;5067958;28;20057;-60
2022/05/09 14:10:37;;;;;;;7.47;2.78;;;;;;;;;;5067894;28;20065;-60
2022/05/09 14:13:22;;;;;;;8.73;2.55;;;;;;;;;;5067909;28;20053;-60
2022/05/09 14:15:55;;;;;;;8.73;3.28;;;;;;;;;;5068000;28;20144;-60
2022/05/09 14:18:22;;;;;;;8.65;3.20;;;;;;;;;;5067692;28;20092;-60
2022/05/09 14:20:49;;;;;;;6.53;2.72;;;;;;;;;;5068530;28;20057;-61
2022/05/09 14:23:17;;;;;;;9.45;2.90;;;;;;;;;;5067745;28;20485;-60
2022/05/09 14:31:39;;;;;;;11.10;2.65;;;;;;;;;;5067622;28;20057;-60
2022/05/09 14:34:14;;;;;;;7.22;2.65;;;;;;;;;;5068268;28;20103;-60
2022/05/09 14:36:41;;;;;;;9.52;2.83;;;;;;;;;;5067613;28;20112;-60
2022/05/09 14:39:16;;;;;;;10.80;3.37;;;;;;;;;;5068312;28;20577;-60
2022/05/09 14:41:44;;;;;;;7.78;3.00;;;;;;;;;;5067622;28;20080;-60
2022/05/09 14:44:14;;;;;;;8.63;3.08;;;;;;;;;;5068325;28;20590;-60
2022/05/09 14:46:44;;;;;;;6.70;2.75;;;;;;;;;;5067072;28;20096;-60
2022/05/09 14:49:14;;;;;;;7.65;2.60;;;;;;;;;;5067637;28;20068;-60
2022/05/09 14:51:40;;;;;;;8.25;3.08;;;;;;;;;;5067065;28;20101;-60
2022/05/09 14:54:08;;;;;;;6.80;3.25;;;;;;;;;;5066925;28;20194;-60
2022/05/09 14:59:24;;;;;;;9.82;3.20;;;;;;;;;;5067107;28;20099;-60
2022/05/09 15:01:52;;;;;;;10.48;3.90;;;;;;;;;;5067691;28;20115;-60
2022/05/09 15:04:19;;;;;;;6.63;3.17;;;;;;;;;;5067452;28;20140;-60
2022/05/09 15:06:45;;;;;;;6.18;2.85;;;;;;;;;;5068057;28;20053;-60
2022/05/09 15:09:12;;;;;;;9.93;3.53;;;;;;;;;;5068097;28;20478;-60
2022/05/09 15:11:39;;;;;;;5.97;2.80;;;;;;;;;;5066549;28;20573;-60